Yorkton Municipal Airport
CYQV : rendu visible

Aérodrome :











RETROUVEZ-NOUS SUR...

 
LOGIN :

S'inscrire | Disclaimer

   EN    FR    IT 

 









Légende :    VFR   VFR Marginal   IFR   IFR Intensif   IFR Très Intensif
Visi : 
Plafond : 
>= 8 km
>= 3000ft
5 à 8 km
1000 à 3000 ft
1500m à 5 km
500 à 1000 ft
800 à 1500m
200 à 500 ft
< 800m
< 200 ft
Symboles :   Orages  Brouillard  Fortes neiges  Fortes précipitations  Vent > 20 kt






- Altitude de l'aérodrome : 1635 ft
- Code IATA : YQV


CYQV - Yorkton Municipal

DERNIER METAR :
  • 081203Z AUTO 31011G18KT 9SM BKN044 BKN070 OVC089 M03/M07 A2985 RMK SLP133

METARs EXPIRÉS :
  • 081156Z AUTO 31013G23KT 6SM -SN BKN042 OVC065 M02/M06 A2984 RMK SLP132
  • 081147Z AUTO 32018G27KT 5SM -SN SCT031 OVC043 M02/M06 A2984 RMK SLP130
  • 081128Z AUTO 32016G27KT 6SM -SN FEW014 SCT022 BKN039 OVC046 M02/M05 A2983 RMK PRESRR SLP128
  • 081116Z AUTO 32025G33KT 2 1/4SM -SN BKN014 BKN022 OVC037 M02/M04 A2983 RMK PRESRR SLP126
  • 081042Z AUTO 30019G25KT 9SM -SN OVC016 M00/M02 A2979 RMK SLP111
  • 081000Z AUTO 29013G19KT 9SM OVC018 M00/M02 A2978 RMK SLP108

TAF AMD TAF CYQV
Valide du 08 à 12h jusqu'au 09 à 00h UTC


081216Z 0812/0824 31012G22KT P6SM SCT040 BKN080
FM081500 31020G35KT P6SM SCT020 BKN030
TEMPO 0815/0820 2SM -SHSN BKN020 OVC030
FM082000 31020G35KT P6SM -SHSN SCT015 OVC025
TEMPO 0820/0824 1SM -SHSN VV015 RMK FCST BASED ON AUTO OBS. NXT FCST BY 081800Z



MET'MAP, la Météo Aéronautique d'un coup d'oeil ! - Copyright ORBIFLY Décembre 2007 - Disclaimer

ORBIFLY MET'MAP TEAM :

Programmation & Développement : Alexandra Zaïnal
Sur une idée originale de : Baudouin d'Aumeries
Assistance à la programmation : Marc-Olivier Méhu
Soutien technique & logistique : Manuel Goepfert

Contact : metmap@orbifly.com




SOURCES & CREDITS :

   NOAA       Earth
Advisory